Time;durP1;ratioP1;P1;durP2;ratioP2;P2;SDS_P1;SDS_P2;PMS_P1;PMS_P2;Temp;Humidity;BMP_temperature;BMP_pressure;BME280_temperature;BME280_humidity;BME280_pressure;Samples;Min_cycle;Max_cycle;Signal;HPM_P1;HPM_P2
2021/06/27 00:00:21;;;;;;;0.70;0.63;;;16.20;99.90;;;-143.50;100.00;58913.53;4991980;28;20443;-72
2021/06/27 00:02:49;;;;;;;0.70;0.57;;;16.20;99.90;;;-143.50;100.00;58913.53;5008985;28;20979;-73
2021/06/27 00:05:22;;;;;;;0.80;0.70;;;16.10;99.90;;;-143.50;100.00;58913.53;4993645;28;20419;-71
2021/06/27 00:07:51;;;;;;;0.80;0.80;;;16.10;99.90;;;-143.50;100.00;58913.53;4993355;28;20450;-71
2021/06/27 00:10:23;;;;;;;0.80;0.77;;;16.10;99.90;;;-143.50;100.00;58913.53;4995013;28;20437;-71
2021/06/27 00:12:51;;;;;;;0.70;0.70;;;16.10;99.90;;;-143.50;100.00;58913.53;4994499;28;20736;-71
2021/06/27 00:15:24;;;;;;;0.77;0.63;;;16.10;99.90;;;-143.50;100.00;58913.53;4992309;28;20449;-72
2021/06/27 00:17:53;;;;;;;0.80;0.70;;;16.10;99.90;;;-143.50;100.00;58913.53;4992089;28;20446;-72
2021/06/27 00:20:31;;;;;;;0.80;0.70;;;16.10;99.90;;;-143.50;100.00;58913.53;4994587;28;20854;-74
2021/06/27 00:23:00;;;;;;;1.73;1.63;;;16.10;99.90;;;-143.50;100.00;58913.53;4994653;28;20855;-73
2021/06/27 00:25:31;;;;;;;0.70;0.60;;;16.10;99.90;;;-143.50;100.00;58913.53;4993065;28;20424;-73
2021/06/27 00:28:04;;;;;;;0.80;0.70;;;16.10;99.90;;;-143.50;100.00;58913.53;4991111;28;20426;-73
2021/06/27 00:30:33;;;;;;;0.80;0.70;;;16.00;99.90;;;-143.50;100.00;58913.53;4993309;28;20495;-72
2021/06/27 00:33:03;;;;;;;1.23;1.00;;;15.90;99.90;;;-143.50;100.00;58913.53;4992460;28;21001;-72
2021/06/27 00:35:34;;;;;;;0.70;0.70;;;15.90;99.90;;;-143.50;100.00;58913.53;4992269;28;20557;-73
2021/06/27 00:38:02;;;;;;;0.70;0.70;;;15.80;99.90;;;-143.50;100.00;58913.53;4993359;28;20530;-73
2021/06/27 00:40:31;;;;;;;0.70;0.60;;;15.80;99.90;;;-143.50;100.00;58913.53;4993422;28;20414;-73
2021/06/27 00:42:59;;;;;;;0.70;0.63;;;15.80;99.90;;;-143.50;100.00;58913.53;4991175;28;20610;-73
2021/06/27 00:45:29;;;;;;;0.80;0.70;;;15.80;99.90;;;-143.50;100.00;58913.53;4992148;28;20523;-73
2021/06/27 00:47:58;;;;;;;0.80;0.70;;;15.80;99.90;;;-143.50;100.00;58913.53;4993621;28;20431;-73
2021/06/27 00:50:30;;;;;;;0.80;0.80;;;15.80;99.90;;;-143.50;100.00;58913.53;5024588;28;20429;-73
2021/06/27 00:53:01;;;;;;;0.80;0.80;;;15.70;99.90;;;-143.50;100.00;58913.53;4993109;28;20537;-73
2021/06/27 00:55:30;;;;;;;0.80;0.70;;;15.70;99.90;;;-143.50;100.00;58913.53;4993324;28;20416;-73
2021/06/27 00:57:58;;;;;;;0.80;0.70;;;15.60;99.90;;;-143.50;100.00;58913.53;4975881;28;20445;-73
2021/06/27 01:00:29;;;;;;;0.70;0.60;;;15.50;99.90;;;-143.50;100.00;58913.53;4992583;28;20773;-73
2021/06/27 01:02:58;;;;;;;0.80;0.73;;;15.50;99.90;;;-143.50;100.00;58913.53;4994315;28;20455;-73
2021/06/27 01:05:31;;;;;;;0.80;0.70;;;15.40;99.90;;;-143.50;100.00;58913.53;4994378;28;20434;-73
2021/06/27 01:08:05;;;;;;;0.90;0.90;;;15.30;99.90;;;-143.50;100.00;58913.53;4992784;28;20447;-73
2021/06/27 01:10:34;;;;;;;0.70;0.60;;;15.30;99.90;;;-143.50;100.00;58913.53;4993061;28;20490;-72
2021/06/27 01:13:05;;;;;;;0.80;0.70;;;15.30;99.90;;;-143.50;100.00;58913.53;4992921;28;20436;-73
2021/06/27 01:15:33;;;;;;;0.80;0.60;;;15.20;99.90;;;-143.50;100.00;58913.53;4993295;28;20431;-73
2021/06/27 01:18:03;;;;;;;0.73;0.67;;;15.20;99.90;;;-143.50;100.00;58913.53;4975093;28;20468;-72
2021/06/27 01:20:36;;;;;;;0.70;0.60;;;15.20;99.90;;;-143.50;100.00;58913.53;4990305;28;20772;-72
2021/06/27 01:23:11;;;;;;;0.80;0.70;;;15.20;99.90;;;-143.50;100.00;58913.53;4993044;28;20998;-73
2021/06/27 01:25:43;;;;;;;0.70;0.70;;;15.10;99.90;;;-143.50;100.00;58913.53;4992992;28;20420;-72
2021/06/27 01:28:13;;;;;;;0.70;0.60;;;15.10;99.90;;;-143.50;100.00;58913.53;4992687;28;20430;-73
2021/06/27 01:30:43;;;;;;;0.80;0.70;;;15.10;99.90;;;-143.50;100.00;58913.53;4992283;28;20503;-73
2021/06/27 01:33:14;;;;;;;0.80;0.70;;;15.00;99.90;;;-143.50;100.00;58913.53;4992574;28;20434;-73
2021/06/27 01:36:01;;;;;;;0.80;0.70;;;15.00;99.90;;;-143.50;100.00;58913.53;4992396;28;20761;-73
2021/06/27 01:38:31;;;;;;;0.70;0.70;;;14.90;99.90;;;-143.50;100.00;58913.53;4992308;28;20454;-72
2021/06/27 01:40:59;;;;;;;0.70;0.60;;;14.90;99.90;;;-143.50;100.00;58913.53;4996563;28;20422;-73
2021/06/27 01:43:26;;;;;;;0.90;0.87;;;14.90;99.90;;;-143.50;100.00;58913.53;4996758;28;20534;-73
2021/06/27 01:45:59;;;;;;;0.80;0.80;;;14.90;99.90;;;-143.50;100.00;58913.53;4995029;28;20516;-73
2021/06/27 01:48:48;;;;;;;0.70;0.67;;;14.80;99.90;;;-143.50;100.00;58913.53;4996405;28;20433;-73
2021/06/27 01:51:16;;;;;;;0.80;0.70;;;14.80;99.90;;;-143.50;100.00;58913.53;4996339;28;20415;-73
2021/06/27 01:53:45;;;;;;;0.70;0.60;;;14.80;99.90;;;-143.50;100.00;58913.53;4996751;28;20818;-73
2021/06/27 01:56:12;;;;;;;0.70;0.70;;;14.70;99.90;;;-143.50;100.00;58913.53;4995790;28;20930;-72
2021/06/27 01:58:44;;;;;;;0.70;0.67;;;14.70;99.90;;;-143.50;100.00;58913.53;5028331;28;20440;-73
2021/06/27 02:01:16;;;;;;;0.80;0.70;;;14.70;99.90;;;-143.50;100.00;58913.53;4995718;28;20504;-73
2021/06/27 02:03:47;;;;;;;0.80;0.70;;;14.60;99.90;;;-143.50;100.00;58913.53;4995377;28;20445;-73
2021/06/27 02:06:15;;;;;;;0.70;0.70;;;14.60;99.90;;;-143.50;100.00;58913.53;4995057;28;20437;-73
2021/06/27 02:08:44;;;;;;;0.70;0.70;;;14.60;99.90;;;-143.50;100.00;58913.53;4995436;28;20500;-73
2021/06/27 02:11:15;;;;;;;0.70;0.60;;;14.60;99.90;;;-143.50;100.00;58913.53;4995770;28;20944;-73
2021/06/27 02:13:44;;;;;;;0.90;0.90;;;14.60;99.90;;;-143.50;100.00;58913.53;4996023;28;20888;-73
2021/06/27 02:16:12;;;;;;;0.90;0.80;;;14.60;99.90;;;-143.50;100.00;58913.53;4993360;28;20461;-73
2021/06/27 02:18:44;;;;;;;0.70;0.60;;;14.60;99.90;;;-143.50;100.00;58913.53;4995350;28;20438;-73
2021/06/27 02:21:19;;;;;;;0.70;0.60;;;14.60;99.90;;;-143.50;100.00;58913.53;4996191;28;20419;-73
2021/06/27 02:23:48;;;;;;;0.70;0.67;;;14.60;99.90;;;-143.50;100.00;58913.53;4995834;28;20447;-73
2021/06/27 02:26:17;;;;;;;0.70;0.70;;;14.70;99.90;;;-143.50;100.00;58913.53;4995633;28;20925;-73
2021/06/27 02:28:45;;;;;;;0.80;0.73;;;14.70;99.90;;;-143.50;100.00;58913.53;4994007;28;20468;-73
2021/06/27 02:31:13;;;;;;;0.70;0.70;;;14.60;99.90;;;-143.50;100.00;58913.53;4995652;28;20431;-73
2021/06/27 02:33:42;;;;;;;0.70;0.70;;;14.60;99.90;;;-143.50;100.00;58913.53;4993900;28;20431;-72
2021/06/27 02:36:10;;;;;;;0.80;0.70;;;14.70;99.90;;;-143.50;100.00;58913.53;4995675;28;20439;-73
2021/06/27 02:38:39;;;;;;;0.80;0.70;;;14.70;99.90;;;-143.50;100.00;58913.53;4994885;28;20491;-73
2021/06/27 02:41:09;;;;;;;0.70;0.70;;;14.70;99.90;;;-143.50;100.00;58913.53;4995133;28;20446;-72
2021/06/27 02:43:38;;;;;;;0.70;0.70;;;14.70;99.90;;;-143.50;100.00;58913.53;4996134;28;20463;-72
2021/06/27 02:46:08;;;;;;;0.70;0.60;;;14.70;99.90;;;-143.50;100.00;58913.53;4993692;28;20439;-73
2021/06/27 02:48:36;;;;;;;0.70;0.70;;;14.70;99.90;;;-143.50;100.00;58913.53;4995418;28;20427;-73
2021/06/27 02:51:05;;;;;;;0.77;0.70;;;14.60;99.90;;;-143.50;100.00;58913.53;4994412;28;20462;-73
2021/06/27 02:53:34;;;;;;;0.80;0.70;;;14.60;99.90;;;-143.50;100.00;58913.53;4994442;28;20466;-72
2021/06/27 02:56:07;;;;;;;0.70;0.60;;;14.50;99.90;;;-143.50;100.00;58913.53;4995008;28;20464;-72
2021/06/27 02:58:46;;;;;;;0.90;0.90;;;14.40;99.90;;;-143.50;100.00;58913.53;4993290;28;20464;-73
2021/06/27 03:01:15;;;;;;;0.80;0.70;;;14.40;99.90;;;-143.50;100.00;58913.53;4994332;28;20447;-73
2021/06/27 03:03:45;;;;;;;0.70;0.60;;;14.40;99.90;;;-143.50;100.00;58913.53;4994894;28;20487;-72
2021/06/27 03:06:14;;;;;;;0.70;0.60;;;14.40;99.90;;;-143.50;100.00;58913.53;4994992;28;20442;-72
2021/06/27 03:08:42;;;;;;;0.70;0.60;;;14.40;99.90;;;-143.50;100.00;58913.53;4993661;28;20459;-72
2021/06/27 03:11:11;;;;;;;0.70;0.60;;;14.40;99.90;;;-143.50;100.00;58913.53;4994225;28;20831;-73
2021/06/27 03:13:42;;;;;;;0.70;0.70;;;14.30;99.90;;;-143.50;100.00;58913.53;4993163;28;20453;-73
2021/06/27 03:16:10;;;;;;;0.70;0.70;;;14.40;99.90;;;-143.50;100.00;58913.53;4989239;28;20504;-73
2021/06/27 03:18:39;;;;;;;0.73;0.70;;;14.40;99.90;;;-143.50;100.00;58913.53;4993658;28;20430;-73
2021/06/27 03:21:07;;;;;;;0.70;0.60;;;14.40;99.90;;;-143.50;100.00;58913.53;4993104;28;20442;-73
2021/06/27 03:23:35;;;;;;;0.80;0.70;;;14.40;99.90;;;-143.50;100.00;58913.53;4994514;28;20474;-73
2021/06/27 03:26:02;;;;;;;0.77;0.70;;;14.50;99.90;;;-143.50;100.00;58913.53;4994636;28;20520;-73
2021/06/27 03:28:34;;;;;;;0.80;0.60;;;14.50;99.90;;;-143.50;100.00;58913.53;4994722;28;21041;-73
2021/06/27 03:31:04;;;;;;;0.70;0.60;;;14.60;99.90;;;-143.50;100.00;58913.53;5024800;28;20437;-73
2021/06/27 03:33:32;;;;;;;0.70;0.60;;;14.70;99.90;;;-143.50;100.00;58913.53;4994630;28;20443;-73
2021/06/27 03:35:59;;;;;;;0.80;0.70;;;14.80;99.90;;;-143.50;100.00;58913.53;4993904;28;20431;-73
2021/06/27 03:40:58;;;;;;;0.80;0.77;;;15.10;99.90;;;-143.50;100.00;58913.53;4993610;28;20959;-73
2021/06/27 03:43:25;;;;;;;0.70;0.60;;;15.20;99.90;;;-143.50;100.00;58913.53;4993953;28;21033;-73
2021/06/27 03:45:53;;;;;;;0.70;0.70;;;15.40;99.90;;;-143.50;100.00;58913.53;4994163;28;20773;-73
2021/06/27 03:48:22;;;;;;;0.70;0.70;;;15.50;99.90;;;-143.50;100.00;58913.53;4993728;28;20462;-73
2021/06/27 03:50:50;;;;;;;0.80;0.70;;;15.60;99.90;;;-143.50;100.00;58913.53;4994337;28;20447;-73
2021/06/27 03:53:18;;;;;;;0.80;0.70;;;15.70;99.90;;;-143.50;100.00;58913.53;4993705;28;21109;-73
2021/06/27 03:55:45;;;;;;;0.80;0.70;;;15.80;99.90;;;-143.50;100.00;58913.53;4994335;28;20414;-73
2021/06/27 03:58:12;;;;;;;0.80;0.70;;;15.90;99.90;;;-143.50;100.00;58913.53;4993424;28;20935;-73
2021/06/27 04:00:40;;;;;;;0.80;0.70;;;15.90;99.90;;;-143.50;100.00;58913.53;5008192;28;20891;-73
2021/06/27 04:03:07;;;;;;;0.80;0.80;;;16.00;99.90;;;-143.50;100.00;58913.53;4993264;28;21018;-73
2021/06/27 04:05:36;;;;;;;0.80;0.80;;;16.10;99.90;;;-143.50;100.00;58913.53;4993793;28;20892;-73
2021/06/27 04:08:04;;;;;;;0.70;0.60;;;16.20;99.90;;;-143.50;100.00;58913.53;4994055;28;20490;-73
2021/06/27 04:10:32;;;;;;;0.70;0.60;;;16.20;99.90;;;-143.50;100.00;58913.53;5004717;28;20457;-73
2021/06/27 04:13:00;;;;;;;1.67;1.57;;;16.20;99.90;;;-143.50;100.00;58913.53;4989629;28;20424;-73
2021/06/27 04:15:28;;;;;;;0.70;0.60;;;16.20;99.90;;;-143.50;100.00;58913.53;4993688;28;20431;-73
2021/06/27 04:17:56;;;;;;;1.50;1.40;;;16.30;99.90;;;-143.50;100.00;58913.53;4993601;28;20418;-73
2021/06/27 04:20:24;;;;;;;0.70;0.70;;;16.30;99.90;;;-143.50;100.00;58913.53;4990503;28;20440;-73
2021/06/27 04:22:53;;;;;;;0.70;0.60;;;16.40;99.90;;;-143.50;100.00;58913.53;4992623;28;20567;-73
2021/06/27 04:25:20;;;;;;;0.70;0.60;;;16.40;99.90;;;-143.50;100.00;58913.53;4993620;28;20414;-73
2021/06/27 04:27:48;;;;;;;0.80;0.70;;;16.40;99.90;;;-143.50;100.00;58913.53;4993900;28;20517;-73
2021/06/27 04:30:17;;;;;;;0.80;0.70;;;16.40;99.90;;;-143.50;100.00;58913.53;4993121;28;20441;-72
2021/06/27 04:32:44;;;;;;;0.80;0.70;;;16.50;99.90;;;-143.50;100.00;58913.53;4993162;28;20865;-73
2021/06/27 04:35:12;;;;;;;0.80;0.70;;;16.50;99.90;;;-143.50;100.00;58913.53;4992185;28;20773;-73
2021/06/27 04:37:39;;;;;;;0.70;0.60;;;16.60;99.90;;;-143.50;100.00;58913.53;4993511;28;20483;-73
2021/06/27 04:40:10;;;;;;;0.77;0.70;;;16.70;99.90;;;-143.50;100.00;58913.53;4992711;28;20958;-73
2021/06/27 04:42:37;;;;;;;0.70;0.60;;;16.70;99.90;;;-143.50;100.00;58913.53;4993679;28;20592;-72
2021/06/27 04:45:07;;;;;;;0.80;0.70;;;16.80;99.90;;;-143.50;100.00;58913.53;4992258;28;20448;-73
2021/06/27 04:47:34;;;;;;;0.70;0.60;;;16.90;99.90;;;-143.50;100.00;58913.53;4992539;28;20536;-73
2021/06/27 04:50:04;;;;;;;0.77;0.63;;;17.10;99.90;;;-143.50;100.00;58913.53;4991548;28;20966;-73
2021/06/27 04:52:32;;;;;;;0.73;0.70;;;17.10;99.90;;;-143.50;100.00;58913.53;4993600;28;20484;-73
2021/06/27 04:55:00;;;;;;;0.70;0.60;;;17.20;99.90;;;-143.50;100.00;58913.53;4991177;28;20472;-73
2021/06/27 04:57:29;;;;;;;0.70;0.70;;;17.30;99.90;;;-143.50;100.00;58913.53;5024995;28;20865;-73
2021/06/27 04:59:56;;;;;;;0.80;0.70;;;17.40;99.90;;;-143.50;100.00;58913.53;4991285;28;20872;-73
2021/06/27 05:02:24;;;;;;;0.80;0.80;;;17.40;99.90;;;-143.50;100.00;58913.53;4973762;28;20443;-73
2021/06/27 05:04:51;;;;;;;0.80;0.70;;;17.50;99.90;;;-143.50;100.00;58913.53;4985236;28;20444;-73
2021/06/27 05:07:18;;;;;;;0.80;0.63;;;17.50;99.90;;;-143.50;100.00;58913.53;5007918;28;20443;-73
2021/06/27 05:09:46;;;;;;;0.80;0.80;;;17.50;99.90;;;-143.50;100.00;58913.53;4990960;28;20476;-73
2021/06/27 05:12:13;;;;;;;0.73;0.63;;;17.60;99.90;;;-143.50;100.00;58913.53;4993006;28;20426;-73
2021/06/27 05:14:43;;;;;;;0.70;0.60;;;17.70;99.90;;;-143.50;100.00;58913.53;4996922;28;20460;-73
2021/06/27 05:17:11;;;;;;;0.73;0.63;;;17.70;99.90;;;-143.50;100.00;58913.53;4995003;28;20924;-73
2021/06/27 05:19:38;;;;;;;0.70;0.60;;;17.70;99.90;;;-143.50;100.00;58913.53;4997026;28;20438;-72
2021/06/27 05:22:07;;;;;;;0.80;0.70;;;17.70;99.90;;;-143.50;100.00;58913.53;4996886;28;20443;-74
2021/06/27 05:24:34;;;;;;;0.90;0.90;;;17.80;99.90;;;-143.50;100.00;58913.53;4996867;28;20989;-73
2021/06/27 05:27:04;;;;;;;0.70;0.67;;;17.90;99.90;;;-143.50;100.00;58913.53;4996288;28;20493;-72
2021/06/27 05:29:32;;;;;;;0.70;0.60;;;18.10;99.90;;;-143.50;100.00;58913.53;4994976;28;20467;-73
2021/06/27 05:32:01;;;;;;;0.77;0.67;;;18.10;99.90;;;-143.50;100.00;58913.53;4995234;28;20440;-73
2021/06/27 05:34:29;;;;;;;0.80;0.70;;;18.30;99.90;;;-143.50;100.00;58913.53;4996251;28;20846;-73
2021/06/27 05:36:58;;;;;;;0.70;0.70;;;18.40;99.90;;;-143.50;100.00;58913.53;4995299;28;20448;-73
2021/06/27 05:39:26;;;;;;;0.70;0.60;;;18.60;99.90;;;-143.50;100.00;58913.53;4996771;28;20446;-73
2021/06/27 05:41:54;;;;;;;0.80;0.70;;;18.70;99.90;;;-143.50;100.00;58913.53;4995508;28;20431;-73
2021/06/27 05:44:21;;;;;;;0.80;0.70;;;18.80;99.90;;;-143.50;100.00;58913.53;4996004;28;20979;-73
2021/06/27 05:46:49;;;;;;;0.80;0.70;;;19.00;99.90;;;-143.50;100.00;58913.53;4995652;28;20526;-73
2021/06/27 05:49:18;;;;;;;0.70;0.70;;;19.20;99.90;;;-143.50;100.00;58913.53;4996496;28;20533;-73
2021/06/27 05:51:46;;;;;;;0.80;0.70;;;19.40;99.90;;;-143.50;100.00;58913.53;4993099;28;20521;-73
2021/06/27 05:54:14;;;;;;;0.70;0.63;;;19.60;99.90;;;-143.50;100.00;58913.53;4996596;28;20453;-73
2021/06/27 05:56:41;;;;;;;0.70;0.60;;;19.80;99.90;;;-143.50;100.00;58913.53;4995216;28;20970;-73
2021/06/27 05:59:09;;;;;;;0.83;0.77;;;20.00;99.90;;;-143.50;100.00;58913.53;4996028;28;20461;-73
2021/06/27 06:01:37;;;;;;;0.80;0.67;;;20.10;99.90;;;-143.50;100.00;58913.53;4994175;28;20872;-73
2021/06/27 06:04:04;;;;;;;0.70;0.63;;;20.20;99.90;;;-143.50;100.00;58913.53;4996131;28;20467;-73
2021/06/27 06:06:34;;;;;;;0.80;0.70;;;20.40;99.90;;;-143.50;100.00;58913.53;4995047;28;20457;-72
2021/06/27 06:09:02;;;;;;;0.80;0.63;;;20.60;99.90;;;-143.50;100.00;58913.53;4990110;28;20455;-73
2021/06/27 06:11:31;;;;;;;0.70;0.70;;;20.70;99.90;;;-143.50;100.00;58913.53;4991904;28;20518;-72
2021/06/27 06:13:58;;;;;;;0.80;0.70;;;20.80;99.90;;;-143.50;100.00;58913.53;4994987;28;20458;-73
2021/06/27 06:16:26;;;;;;;0.80;0.60;;;20.90;99.90;;;-143.50;100.00;58913.53;4988156;28;20419;-73
2021/06/27 06:18:53;;;;;;;0.70;0.60;;;21.00;99.90;;;-143.50;100.00;58913.53;4990576;28;20427;-72
2021/06/27 06:21:21;;;;;;;0.80;0.70;;;21.20;99.90;;;-143.50;100.00;58913.53;4994906;28;20475;-73
2021/06/27 06:23:50;;;;;;;0.70;0.60;;;21.30;99.90;;;-143.50;100.00;58913.53;4994139;28;20582;-73
2021/06/27 06:26:17;;;;;;;0.80;0.70;;;21.50;99.90;;;-143.50;100.00;58913.53;4995045;28;20497;-73
2021/06/27 06:28:45;;;;;;;0.80;0.70;;;21.60;99.90;;;-143.50;100.00;58913.53;4994968;28;20427;-73
2021/06/27 06:31:14;;;;;;;0.77;0.70;;;21.70;99.90;;;-143.50;100.00;58913.53;4995388;28;20431;-72
2021/06/27 06:33:41;;;;;;;0.70;0.60;;;21.90;99.90;;;-143.50;100.00;58913.53;4994559;28;20774;-72
2021/06/27 06:36:09;;;;;;;0.80;0.70;;;21.80;99.90;;;-143.50;100.00;58913.53;4989545;28;20530;-73
2021/06/27 06:38:36;;;;;;;0.80;0.70;;;21.80;99.90;;;-143.50;100.00;58913.53;4980210;28;20475;-73
2021/06/27 06:41:05;;;;;;;0.80;0.70;;;21.70;99.90;;;-143.50;100.00;58913.53;4974562;28;20497;-72
2021/06/27 06:43:33;;;;;;;0.80;0.70;;;21.60;99.90;;;-143.50;100.00;58913.53;4989903;28;20429;-73
2021/06/27 06:46:02;;;;;;;0.77;0.70;;;21.60;99.90;;;-143.50;100.00;58913.53;4988701;28;20432;-73
2021/06/27 06:48:29;;;;;;;0.80;0.70;;;21.60;99.90;;;-143.50;100.00;58913.53;4979756;28;20450;-73
2021/06/27 06:51:00;;;;;;;0.70;0.60;;;21.60;99.90;;;-143.50;100.00;58913.53;4991123;28;20434;-72
2021/06/27 06:53:28;;;;;;;0.80;0.80;;;21.60;99.90;;;-143.50;100.00;58913.53;4990011;28;20796;-73
2021/06/27 06:55:57;;;;;;;0.80;0.70;;;21.70;99.90;;;-143.50;100.00;58913.53;4995969;28;20390;-73
2021/06/27 06:58:29;;;;;;;0.70;0.63;;;21.80;99.90;;;-143.50;100.00;58913.53;4995221;28;20405;-73
2021/06/27 07:00:58;;;;;;;0.70;0.60;;;21.90;99.90;;;-143.50;100.00;58913.53;4994903;28;20443;-73
2021/06/27 07:03:27;;;;;;;0.80;0.70;;;22.00;99.90;;;-143.50;100.00;58913.53;4993773;28;20953;-73
2021/06/27 07:05:59;;;;;;;0.80;0.70;;;22.10;99.90;;;-143.50;100.00;58913.53;4990150;28;20445;-72
2021/06/27 07:08:28;;;;;;;0.70;0.60;;;22.30;99.90;;;-143.50;100.00;58913.53;4993769;28;20457;-72
2021/06/27 07:10:55;;;;;;;0.80;0.60;;;22.30;99.90;;;-143.50;100.00;58913.53;4993139;28;20769;-72
2021/06/27 07:13:25;;;;;;;0.80;0.60;;;22.30;99.90;;;-143.50;100.00;58913.53;4994320;28;20434;-72
2021/06/27 07:15:53;;;;;;;0.80;0.77;;;22.40;99.90;;;-143.50;100.00;58913.53;4994886;28;20439;-73
2021/06/27 07:18:22;;;;;;;0.80;0.70;;;22.40;99.90;;;-143.50;100.00;58913.53;4993626;28;20919;-72
2021/06/27 07:20:50;;;;;;;0.80;0.70;;;22.30;99.90;;;-143.50;100.00;58913.53;4986395;28;20507;-72
2021/06/27 07:23:18;;;;;;;0.80;0.77;;;22.30;99.90;;;-143.50;100.00;58913.53;4975349;28;20446;-73
2021/06/27 07:25:45;;;;;;;0.80;0.70;;;22.20;99.90;;;-143.50;100.00;58913.53;4975230;28;20412;-73
2021/06/27 07:28:13;;;;;;;0.80;0.80;;;22.40;99.90;;;-143.50;100.00;58913.53;4974855;28;20419;-72
2021/06/27 07:30:42;;;;;;;0.80;0.60;;;22.60;99.90;;;-143.50;100.00;58913.53;4974946;28;20387;-72
2021/06/27 07:33:12;;;;;;;1.00;0.90;;;22.70;99.90;;;-143.50;100.00;58913.53;4983857;28;20450;-73
2021/06/27 07:35:39;;;;;;;0.70;0.60;;;22.90;99.90;;;-143.50;100.00;58913.53;5009595;28;20486;-73
2021/06/27 07:38:07;;;;;;;0.80;0.70;;;23.10;99.90;;;-143.50;100.00;58913.53;4994510;28;20451;-73
2021/06/27 07:40:35;;;;;;;0.80;0.70;;;23.30;99.90;;;-143.50;100.00;58913.53;4994546;28;20452;-72
2021/06/27 07:43:03;;;;;;;1.00;0.90;;;23.60;99.90;;;-143.50;100.00;58913.53;4996101;28;20412;-73
2021/06/27 07:45:34;;;;;;;0.80;0.60;;;23.90;99.90;;;-143.50;100.00;58913.53;5006840;28;20390;-73
2021/06/27 07:48:06;;;;;;;0.80;0.70;;;24.10;99.90;;;-143.50;100.00;58913.53;4997218;28;20409;-73
2021/06/27 07:50:37;;;;;;;0.70;0.60;;;24.20;99.90;;;-143.50;100.00;58913.53;5003824;28;20418;-74
2021/06/27 07:53:06;;;;;;;0.80;0.70;;;24.40;99.90;;;-143.50;100.00;58913.53;5003265;28;20592;-72
2021/06/27 07:55:36;;;;;;;0.70;0.60;;;24.60;99.90;;;-143.50;100.00;58913.53;4999080;28;20422;-73
2021/06/27 07:58:04;;;;;;;0.80;0.70;;;24.70;99.90;;;-143.50;100.00;58913.53;4998145;28;20903;-72
2021/06/27 08:00:33;;;;;;;0.80;0.70;;;25.00;99.90;;;-143.50;100.00;58913.53;4994154;28;20489;-72
2021/06/27 08:03:02;;;;;;;0.90;0.90;;;25.10;99.90;;;-143.50;100.00;58913.53;4998286;28;20485;-72
2021/06/27 08:05:36;;;;;;;0.70;0.60;;;25.30;99.90;;;-143.50;100.00;58913.53;4995862;28;20419;-72
2021/06/27 08:08:08;;;;;;;0.70;0.50;;;25.30;99.90;;;-143.50;100.00;58913.53;4992996;28;20472;-71
2021/06/27 08:10:35;;;;;;;0.70;0.60;;;25.50;99.90;;;-143.50;100.00;58913.53;4994051;28;20447;-72
2021/06/27 08:13:04;;;;;;;0.80;0.60;;;25.60;99.90;;;-143.50;100.00;58913.53;4992542;28;20431;-72
2021/06/27 08:15:32;;;;;;;0.70;0.60;;;25.80;99.90;;;-143.50;100.00;58913.53;4993350;28;20525;-71
2021/06/27 08:18:00;;;;;;;0.70;0.60;;;25.90;99.90;;;-143.50;100.00;58913.53;4993574;28;20869;-72
2021/06/27 08:20:28;;;;;;;0.70;0.50;;;26.10;99.90;;;-143.50;100.00;58913.53;4992666;28;20435;-72
2021/06/27 08:22:57;;;;;;;0.80;0.80;;;26.30;99.90;;;-143.50;100.00;58913.53;4993769;28;20462;-73
2021/06/27 08:25:25;;;;;;;1.00;1.00;;;26.40;99.90;;;-143.50;100.00;58913.53;4992387;28;20458;-71
2021/06/27 08:27:53;;;;;;;0.90;0.80;;;26.60;99.90;;;-143.50;100.00;58913.53;4993326;28;20470;-72
2021/06/27 08:30:23;;;;;;;0.70;0.60;;;26.90;99.50;;;-143.50;100.00;58913.53;4993699;28;20754;-72
2021/06/27 08:32:51;;;;;;;0.70;0.60;;;27.10;98.20;;;-143.50;100.00;58913.53;4992084;28;20439;-72
2021/06/27 08:35:20;;;;;;;0.70;0.50;;;27.40;95.60;;;-143.50;100.00;58913.53;4993250;28;20445;-73
2021/06/27 08:37:50;;;;;;;0.80;0.60;;;27.70;92.30;;;-143.50;100.00;58913.53;4991627;28;20473;-73
2021/06/27 08:40:20;;;;;;;0.70;0.60;;;27.80;83.40;;;-143.50;100.00;58913.53;4992391;28;20431;-72
2021/06/27 08:42:48;;;;;;;0.70;0.50;;;27.80;80.30;;;-143.50;100.00;58913.53;4993229;28;20438;-73
2021/06/27 08:45:16;;;;;;;0.80;0.60;;;27.90;75.40;;;-143.50;100.00;58913.53;4993175;28;20881;-72
2021/06/27 08:47:46;;;;;;;0.70;0.50;;;28.10;75.50;;;-143.50;100.00;58913.53;4994627;28;20434;-73
2021/06/27 08:50:16;;;;;;;1.07;0.97;;;28.20;68.50;;;-143.50;100.00;58913.53;4997394;28;20572;-73
2021/06/27 08:52:44;;;;;;;0.70;0.50;;;28.10;66.20;;;-143.50;100.00;58913.53;4990558;28;20506;-71
2021/06/27 08:55:14;;;;;;;0.70;0.60;;;28.00;69.00;;;-143.50;100.00;58913.53;4977878;28;20506;-72
2021/06/27 08:57:43;;;;;;;0.70;0.60;;;28.30;66.50;;;-143.50;100.00;58913.53;4992951;28;20546;-74
2021/06/27 09:00:13;;;;;;;0.70;0.50;;;28.40;63.30;;;-143.50;100.00;58913.53;4984169;28;20461;-72
2021/06/27 09:02:40;;;;;;;0.70;0.50;;;28.70;64.30;;;-143.50;100.00;58913.53;4996995;28;20744;-72
2021/06/27 09:05:10;;;;;;;0.70;0.70;;;29.00;67.60;;;-143.50;100.00;58913.53;4995928;28;20681;-73
2021/06/27 09:07:39;;;;;;;0.70;0.60;;;28.80;57.00;;;-143.50;100.00;58913.53;4996387;28;20429;-75
2021/06/27 09:10:09;;;;;;;0.70;0.50;;;28.90;58.60;;;-143.50;100.00;58913.53;4998337;28;20416;-73
2021/06/27 09:12:50;;;;;;;0.70;0.50;;;29.00;55.50;;;-143.50;100.00;58913.53;4995599;28;20430;-72
2021/06/27 09:15:39;;;;;;;0.70;0.50;;;29.30;51.50;;;-143.50;100.00;58913.53;5001089;28;20423;-74
2021/06/27 09:18:09;;;;;;;0.70;0.50;;;29.80;52.80;;;-143.50;100.00;58913.53;4976505;28;20416;-72
2021/06/27 09:20:38;;;;;;;0.70;0.50;;;30.30;48.50;;;-143.50;100.00;58913.53;4976227;28;20418;-72
2021/06/27 09:23:08;;;;;;;0.70;0.50;;;30.60;51.60;;;-143.50;100.00;58913.53;4977503;28;20443;-73
2021/06/27 09:25:37;;;;;;;0.80;0.50;;;30.90;45.90;;;-143.50;100.00;58913.53;4976034;28;20475;-73
2021/06/27 09:28:13;;;;;;;0.80;0.50;;;31.30;43.50;;;-143.50;100.00;58913.53;4977558;28;20408;-73
2021/06/27 09:30:45;;;;;;;0.80;0.53;;;31.50;42.40;;;-143.50;100.00;58913.53;4991494;28;20929;-73
2021/06/27 09:33:16;;;;;;;0.77;0.50;;;31.40;38.00;;;-143.50;100.00;58913.53;4996467;28;20408;-74
2021/06/27 09:35:54;;;;;;;0.90;0.77;;;32.00;36.40;;;-143.50;100.00;58913.53;4996611;28;20415;-73
2021/06/27 09:38:29;;;;;;;0.80;0.50;;;32.80;33.60;;;-143.50;100.00;58913.53;4995551;28;20438;-75
2021/06/27 09:41:02;;;;;;;0.80;0.50;;;33.10;32.20;;;-143.50;100.00;58913.53;4995266;28;20484;-74
2021/06/27 09:43:33;;;;;;;0.87;0.70;;;33.70;29.70;;;-143.50;100.00;58913.53;4996168;28;20441;-73
2021/06/27 09:46:14;;;;;;;0.80;0.50;;;33.90;26.90;;;-143.50;100.00;58913.53;4994819;28;20458;-73
2021/06/27 09:48:57;;;;;;;0.80;0.50;;;34.10;24.60;;;-143.50;100.00;58913.53;4996786;28;20417;-73
2021/06/27 09:51:30;;;;;;;0.80;0.50;;;34.50;22.00;;;-143.50;100.00;58913.53;4996042;28;20887;-75
2021/06/27 09:53:59;;;;;;;0.80;0.60;;;34.40;22.50;;;-143.50;100.00;58913.53;4995410;28;20437;-74
2021/06/27 09:56:28;;;;;;;0.80;0.60;;;34.60;23.40;;;-143.50;100.00;58913.53;4994263;28;20476;-74
2021/06/27 09:59:01;;;;;;;0.90;0.60;;;35.00;20.40;;;-143.50;100.00;58913.53;4995148;28;20449;-75
2021/06/27 10:01:31;;;;;;;0.80;0.50;;;35.00;22.10;;;-143.50;100.00;58913.53;4994969;28;20458;-74
2021/06/27 10:04:01;;;;;;;0.80;0.50;;;34.80;17.20;;;-143.50;100.00;58913.53;4996391;28;20974;-74
2021/06/27 10:06:31;;;;;;;0.80;0.50;;;34.30;15.90;;;-143.50;100.00;58913.53;4996207;28;20488;-74
2021/06/27 10:09:11;;;;;;;0.80;0.50;;;34.70;18.00;;;-143.50;100.00;58913.53;4991181;28;20458;-76
2021/06/27 10:11:53;;;;;;;0.80;0.50;;;34.70;16.90;;;-143.50;100.00;58913.53;5015293;28;20537;-74